New Paris, Indiana
Current Conditions -  °F | °C
As of 6:53 PM on Wednesday 28 Jan 2015 (Local Time) from KGSH Reporting Station
Clear Clear  
Wind Chill: 14°   Ceiling: Unl
Heat Index: 26°   Visibility: 10mi
Dew Point: 16°   Wind: 14mph
Humidity: 66%   Direction: 140°SE
Pressure: 30.13"   Gusts: NA
Location:  41.5°N, 85.83°W
Report Text: KGSH 282353Z AUTO 14012KT 10SM CLR M03/M09 A3013 RMK AO2 SLP217 T10331089 11011 21033 58024
Loading
Personal Weather Stations






























Interactive Weather Map New forecast layout! Learn more

10-Day Weather Forecast

Advertisements
Track Severe Weather on mobile